createdAt,value
2022-09-23T00:00:05.376Z,25.70
2022-09-23T00:02:07.847Z,23.73
2022-09-23T00:04:10.021Z,22.55
2022-09-23T00:06:18.231Z,21.73
2022-09-23T00:08:20.511Z,25.73
2022-09-23T00:10:33.805Z,20.95
2022-09-23T00:12:36.520Z,22.02
2022-09-23T00:14:39.424Z,22.75
2022-09-23T00:16:41.778Z,21.10
2022-09-23T00:20:56.099Z,21.73
2022-09-23T00:23:01.552Z,28.90
2022-09-23T00:25:18.798Z,22.17
2022-09-23T00:27:54.636Z,22.38
2022-09-23T00:29:57.315Z,23.08
2022-09-23T00:32:08.376Z,22.20
2022-09-23T00:34:13.555Z,20.73
2022-09-23T00:36:52.659Z,20.38
2022-09-23T00:39:26.236Z,21.60
2022-09-23T00:41:39.852Z,20.30
2022-09-23T00:43:49.168Z,23.33
2022-09-23T00:45:51.536Z,22.08
2022-09-23T00:50:17.715Z,23.73
2022-09-23T00:52:23.848Z,23.15
2022-09-23T00:54:27.907Z,25.58
2022-09-23T00:56:31.994Z,23.15
2022-09-23T00:58:39.386Z,28.52
2022-09-23T01:00:42.820Z,25.90
2022-09-23T01:02:44.936Z,28.77
2022-09-23T01:04:49.703Z,25.15
2022-09-23T01:06:51.896Z,29.25
2022-09-23T01:08:54.070Z,26.10
2022-09-23T01:11:20.843Z,25.13
2022-09-23T01:13:57.965Z,26.88
2022-09-23T01:16:15.084Z,27.48
2022-09-23T01:18:43.646Z,24.02
2022-09-23T01:21:21.526Z,20.45
2022-09-23T01:24:15.771Z,28.67
2022-09-23T01:26:36.041Z,26.17
2022-09-23T01:29:15.299Z,34.80
2022-09-23T01:31:37.560Z,27.13
2022-09-23T01:33:45.476Z,30.73
2022-09-23T01:36:19.284Z,27.73
2022-09-23T01:38:47.043Z,28.35
2022-09-23T01:40:55.028Z,31.02
2022-09-23T01:43:06.209Z,26.75
2022-09-23T01:45:32.177Z,27.33
2022-09-23T01:47:42.750Z,26.15
2022-09-23T01:50:29.627Z,32.72
2022-09-23T01:52:42.010Z,31.17
2022-09-23T01:54:55.647Z,34.90
2022-09-23T01:57:09.975Z,30.17
2022-09-23T01:59:18.542Z,30.05
2022-09-23T02:01:30.198Z,36.35
2022-09-23T02:03:59.883Z,34.95
2022-09-23T02:06:20.363Z,37.28
2022-09-23T02:08:32.057Z,38.30
2022-09-23T02:10:54.115Z,32.35
2022-09-23T02:13:10.113Z,33.20
2022-09-23T02:15:17.832Z,35.17
2022-09-23T02:17:31.552Z,32.35
2022-09-23T02:19:46.360Z,33.75
2022-09-23T02:21:56.133Z,39.58
2022-09-23T02:24:06.416Z,31.90
2022-09-23T02:26:33.882Z,36.97
2022-09-23T02:28:51.832Z,28.42
2022-09-23T02:31:07.827Z,33.30
2022-09-23T02:33:35.174Z,28.45
2022-09-23T02:35:51.801Z,30.63
2022-09-23T02:37:53.827Z,31.85
2022-09-23T02:40:07.866Z,29.65
2022-09-23T02:42:15.597Z,32.70
2022-09-23T02:44:20.461Z,29.92
2022-09-23T02:46:23.481Z,30.55
2022-09-23T02:48:48.468Z,30.13
2022-09-23T02:50:50.803Z,29.65
2022-09-23T02:54:59.009Z,26.42
2022-09-23T02:57:06.872Z,29.52
2022-09-23T02:59:09.979Z,27.23
2022-09-23T03:01:22.868Z,27.02
2022-09-23T03:03:37.220Z,27.23
2022-09-23T03:05:50.615Z,26.38
2022-09-23T03:08:05.130Z,25.35
2022-09-23T03:10:16.694Z,24.95
2022-09-23T03:12:21.637Z,31.23
2022-09-23T03:14:40.417Z,31.13
2022-09-23T03:16:50.962Z,24.60
2022-09-23T03:19:22.179Z,27.33
2022-09-23T03:21:53.221Z,30.63
2022-09-23T03:23:59.830Z,25.40
2022-09-23T03:26:08.669Z,30.45
2022-09-23T03:28:12.090Z,27.75
2022-09-23T03:30:14.515Z,25.05
2022-09-23T03:32:19.867Z,25.55
2022-09-23T03:34:27.518Z,27.83
2022-09-23T03:36:53.988Z,26.65
2022-09-23T03:39:04.746Z,31.42
2022-09-23T03:41:11.024Z,23.77
2022-09-23T03:43:14.316Z,26.98
2022-09-23T03:45:21.174Z,27.83
2022-09-23T03:47:26.361Z,26.05
2022-09-23T03:49:33.554Z,25.88
2022-09-23T03:51:35.893Z,25.23
2022-09-23T03:55:41.773Z,27.10
2022-09-23T03:57:45.296Z,27.05
2022-09-23T03:59:47.436Z,22.10
2022-09-23T04:01:50.400Z,25.58
2022-09-23T04:03:53.847Z,28.77
2022-09-23T04:05:56.091Z,23.67
2022-09-23T04:07:58.254Z,23.80
2022-09-23T04:10:00.503Z,25.05
2022-09-23T04:12:03.854Z,17.88
2022-09-23T04:14:05.987Z,21.67
2022-09-23T04:16:08.175Z,17.05
2022-09-23T04:18:10.461Z,17.38
2022-09-23T04:20:12.984Z,20.52
2022-09-23T04:22:15.108Z,15.38
2022-09-23T04:24:17.588Z,17.27
2022-09-23T04:26:19.686Z,19.75
2022-09-23T04:28:22.745Z,13.63
2022-09-23T04:30:24.918Z,16.08
2022-09-23T04:32:27.089Z,16.70
2022-09-23T04:34:29.240Z,12.27
2022-09-23T04:36:31.506Z,16.88
2022-09-23T04:40:36.323Z,18.13
2022-09-23T04:42:38.676Z,14.15
2022-09-23T04:44:40.845Z,12.15
2022-09-23T04:46:49.738Z,13.05
2022-09-23T04:48:52.189Z,15.23
2022-09-23T04:50:54.282Z,11.43
2022-09-23T04:52:56.539Z,11.48
2022-09-23T04:57:00.970Z,17.57
2022-09-23T05:01:27.160Z,12.95
2022-09-23T05:03:30.299Z,13.18
2022-09-23T05:05:32.368Z,13.32
2022-09-23T05:07:35.579Z,14.43
2022-09-23T05:09:38.206Z,13.52
2022-09-23T05:11:40.527Z,12.20
2022-09-23T05:15:44.535Z,10.90
2022-09-23T05:17:46.741Z,9.95
2022-09-23T05:19:48.873Z,12.18
2022-09-23T05:21:51.622Z,12.07
2022-09-23T05:23:56.840Z,12.77
2022-09-23T05:26:00.713Z,11.30
2022-09-23T05:28:02.942Z,13.30
2022-09-23T05:30:05.531Z,10.70
2022-09-23T05:32:08.121Z,10.18
2022-09-23T05:34:10.148Z,11.00
2022-09-23T05:36:13.456Z,9.48
2022-09-23T05:38:16.981Z,9.45
2022-09-23T05:40:19.187Z,12.13
2022-09-23T05:42:21.309Z,11.77
2022-09-23T05:46:28.387Z,7.50
2022-09-23T05:48:35.294Z,8.57
2022-09-23T05:50:37.407Z,12.23
2022-09-23T05:52:39.587Z,7.80
2022-09-23T05:54:41.853Z,8.55
2022-09-23T05:56:46.857Z,8.65
2022-09-23T05:58:50.694Z,11.85
2022-09-23T06:00:53.289Z,8.73
2022-09-23T06:02:55.566Z,12.30
2022-09-23T06:04:57.999Z,8.07
2022-09-23T06:07:03.356Z,7.82
2022-09-23T06:09:08.376Z,9.70
2022-09-23T06:11:12.179Z,8.07
2022-09-23T06:13:16.147Z,11.38
2022-09-23T06:15:18.480Z,9.55
2022-09-23T06:17:20.722Z,6.60
2022-09-23T06:21:25.272Z,7.45
2022-09-23T06:23:27.658Z,8.50
2022-09-23T06:25:30.525Z,9.25
2022-09-23T06:28:00.274Z,7.55
2022-09-23T06:30:02.688Z,6.82
2022-09-23T06:32:06.088Z,8.27
2022-09-23T06:34:13.684Z,11.18
2022-09-23T06:36:30.822Z,13.88
2022-09-23T06:38:40.408Z,7.70
2022-09-23T06:40:42.644Z,7.38
2022-09-23T06:45:06.111Z,7.28
2022-09-23T06:47:08.420Z,10.65
2022-09-23T06:49:13.128Z,9.18
2022-09-23T06:51:21.822Z,7.60
2022-09-23T06:53:24.161Z,8.10
2022-09-23T06:57:51.288Z,17.63
2022-09-23T06:59:53.402Z,13.80
2022-09-23T07:02:02.138Z,6.53
2022-09-23T07:04:04.494Z,10.57
2022-09-23T07:06:09.485Z,11.05
2022-09-23T07:08:14.950Z,12.63
2022-09-23T07:10:17.255Z,11.00
2022-09-23T07:14:24.192Z,9.52
2022-09-23T07:16:28.960Z,6.95
2022-09-23T07:20:41.752Z,10.18
2022-09-23T07:23:18.028Z,10.60
2022-09-23T07:25:26.311Z,8.30
2022-09-23T07:29:49.599Z,8.82
2022-09-23T07:31:52.209Z,6.50
2022-09-23T07:33:57.598Z,8.65
2022-09-23T07:36:00.191Z,11.07
2022-09-23T07:38:02.578Z,8.40
2022-09-23T07:40:05.412Z,7.40
2022-09-23T07:42:08.030Z,7.85
2022-09-23T07:44:13.928Z,8.30
2022-09-23T07:46:56.312Z,7.05
2022-09-23T07:49:01.368Z,6.85
2022-09-23T07:51:34.718Z,6.65
2022-09-23T07:53:56.875Z,9.05
2022-09-23T07:56:05.681Z,7.10
2022-09-23T07:58:09.054Z,11.88
2022-09-23T08:00:30.453Z,7.80
2022-09-23T08:02:32.566Z,5.78
2022-09-23T08:04:36.177Z,13.18
2022-09-23T08:06:46.504Z,8.52
2022-09-23T08:08:53.332Z,8.80
2022-09-23T08:11:04.659Z,9.40
2022-09-23T08:13:07.008Z,9.18
2022-09-23T08:19:32.120Z,8.45
2022-09-23T08:21:39.311Z,10.13
2022-09-23T08:23:41.699Z,10.15
2022-09-23T08:27:50.756Z,9.20
2022-09-23T08:29:52.920Z,11.40
2022-09-23T08:31:55.849Z,10.88
2022-09-23T08:34:00.134Z,16.58
2022-09-23T08:36:03.747Z,10.25
2022-09-23T08:38:06.527Z,11.20
2022-09-23T08:40:09.716Z,9.95
2022-09-23T08:42:31.953Z,7.55
2022-09-23T08:44:55.321Z,7.88
2022-09-23T08:47:00.420Z,11.85
2022-09-23T08:49:02.834Z,14.52
2022-09-23T08:51:08.499Z,9.15
2022-09-23T08:53:32.895Z,9.32
2022-09-23T08:55:42.205Z,9.95
2022-09-23T08:58:23.504Z,11.45
2022-09-23T09:00:23.852Z,10.88
2022-09-23T09:02:31.508Z,15.48
2022-09-23T09:04:37.929Z,9.90
2022-09-23T09:06:53.567Z,10.50
2022-09-23T09:09:01.044Z,9.93
2022-09-23T09:11:04.034Z,12.52
2022-09-23T09:13:12.471Z,16.13
2022-09-23T09:15:26.864Z,11.05
2022-09-23T09:17:45.991Z,17.88
2022-09-23T09:20:16.943Z,10.65
2022-09-23T09:22:48.539Z,11.65
2022-09-23T09:24:56.608Z,12.50
2022-09-23T09:27:11.959Z,16.35
2022-09-23T09:29:39.317Z,13.95
2022-09-23T09:31:47.899Z,13.43
2022-09-23T09:34:06.442Z,15.82
2022-09-23T09:36:20.999Z,12.73
2022-09-23T09:38:23.623Z,15.65
2022-09-23T09:40:25.826Z,12.45
2022-09-23T09:44:42.359Z,12.60
2022-09-23T09:47:09.159Z,9.88
2022-09-23T09:49:23.446Z,12.23
2022-09-23T09:51:29.815Z,11.73
2022-09-23T09:53:35.936Z,10.45
2022-09-23T09:55:38.696Z,8.63
2022-09-23T09:57:55.167Z,9.38
2022-09-23T09:59:58.963Z,6.13
2022-09-23T10:02:37.047Z,6.72
2022-09-23T10:04:39.825Z,8.88
2022-09-23T10:06:42.079Z,9.00
2022-09-23T10:10:58.766Z,6.50
2022-09-23T10:13:16.214Z,9.55
2022-09-23T10:15:27.517Z,9.98
2022-09-23T10:17:38.835Z,8.32
2022-09-23T10:19:47.132Z,11.40
2022-09-23T10:22:00.144Z,9.50
2022-09-23T10:24:05.817Z,9.38
2022-09-23T10:26:09.060Z,10.13
2022-09-23T10:28:41.306Z,8.95
2022-09-23T10:31:05.483Z,8.88
2022-09-23T10:33:27.968Z,13.75
2022-09-23T10:35:34.528Z,9.55
2022-09-23T10:37:42.241Z,12.20
2022-09-23T10:40:06.516Z,12.13
2022-09-23T10:42:46.883Z,15.82
2022-09-23T10:45:20.053Z,11.68
2022-09-23T10:47:35.099Z,7.05
2022-09-23T10:49:44.017Z,9.85
2022-09-23T10:51:49.140Z,8.65
2022-09-23T10:54:02.802Z,7.70
2022-09-23T10:56:11.129Z,10.75
2022-09-23T10:58:13.157Z,7.13
2022-09-23T11:02:21.399Z,6.95
2022-09-23T11:04:52.933Z,9.05
2022-09-23T11:07:07.448Z,9.60
2022-09-23T11:09:28.266Z,8.55
2022-09-23T11:11:58.757Z,9.75
2022-09-23T11:14:04.812Z,6.28
2022-09-23T11:16:43.276Z,6.03
2022-09-23T11:18:59.870Z,8.45
2022-09-23T11:21:26.662Z,8.70
2022-09-23T11:24:06.362Z,12.88
2022-09-23T11:26:19.823Z,8.27
2022-09-23T11:28:37.168Z,11.45
2022-09-23T11:31:17.465Z,6.72
2022-09-23T11:33:37.894Z,10.20
2022-09-23T11:35:50.500Z,12.25
2022-09-23T11:38:00.881Z,9.48
2022-09-23T11:40:12.455Z,10.10
2022-09-23T11:42:21.632Z,6.22
2022-09-23T11:44:28.699Z,7.88
2022-09-23T11:46:35.993Z,9.40
2022-09-23T11:48:44.858Z,7.53
2022-09-23T11:50:57.509Z,12.73
2022-09-23T11:53:31.768Z,14.00
2022-09-23T11:55:54.655Z,10.57
2022-09-23T11:58:13.002Z,10.45
2022-09-23T12:00:24.355Z,11.57
2022-09-23T12:02:59.595Z,12.20
2022-09-23T12:05:14.131Z,11.50
2022-09-23T12:07:28.795Z,10.52
2022-09-23T12:10:04.108Z,8.10
2022-09-23T12:12:29.499Z,9.90
2022-09-23T12:14:49.978Z,7.80
2022-09-23T12:17:15.052Z,8.75
2022-09-23T12:19:18.999Z,7.68
2022-09-23T12:21:48.649Z,11.82
2022-09-23T12:24:20.455Z,11.98
2022-09-23T12:26:25.668Z,12.93
2022-09-23T12:28:37.867Z,11.70
2022-09-23T12:30:42.350Z,13.57
2022-09-23T12:32:45.412Z,9.70
2022-09-23T12:34:54.679Z,7.53
2022-09-23T12:37:06.339Z,11.18
2022-09-23T12:39:15.568Z,17.92
2022-09-23T12:41:24.160Z,13.38
2022-09-23T12:43:35.708Z,11.38
2022-09-23T12:45:51.022Z,15.98
2022-09-23T12:47:54.048Z,7.45
2022-09-23T12:50:13.316Z,9.75
2022-09-23T12:52:19.697Z,12.05
2022-09-23T12:54:28.321Z,7.05
2022-09-23T12:56:36.627Z,10.13
2022-09-23T13:01:19.910Z,11.02
2022-09-23T13:03:49.526Z,8.27
2022-09-23T13:06:17.302Z,10.90
2022-09-23T13:08:25.046Z,11.57
2022-09-23T13:10:29.780Z,11.52
2022-09-23T13:12:40.489Z,13.13
2022-09-23T13:14:46.185Z,13.55
2022-09-23T13:16:52.362Z,17.73
2022-09-23T13:19:02.817Z,11.93
2022-09-23T13:21:17.983Z,9.52
2022-09-23T13:23:26.627Z,6.80
2022-09-23T13:25:33.571Z,9.70
2022-09-23T13:27:36.497Z,7.40
2022-09-23T13:30:19.365Z,10.90
2022-09-23T13:32:32.024Z,11.70
2022-09-23T13:34:36.264Z,7.35
2022-09-23T13:36:49.504Z,14.07
2022-09-23T13:38:51.940Z,10.07
2022-09-23T13:40:57.154Z,9.57
2022-09-23T13:43:03.345Z,10.38
2022-09-23T13:45:06.892Z,9.75
2022-09-23T13:47:18.198Z,7.75
2022-09-23T13:49:25.240Z,13.77
2022-09-23T13:51:33.275Z,10.93
2022-09-23T13:53:35.485Z,11.95
2022-09-23T13:57:43.341Z,11.27
2022-09-23T13:59:45.563Z,14.38
2022-09-23T14:01:47.837Z,15.55
2022-09-23T14:03:51.571Z,10.75
2022-09-23T14:08:08.189Z,11.02
2022-09-23T14:10:19.198Z,9.05
2022-09-23T14:12:26.384Z,8.73
2022-09-23T14:14:33.782Z,14.68
2022-09-23T14:16:39.734Z,8.90
2022-09-23T14:18:47.273Z,14.40
2022-09-23T14:20:51.856Z,13.55
2022-09-23T14:25:16.815Z,14.52
2022-09-23T14:27:28.606Z,10.55
2022-09-23T14:29:33.872Z,13.73
2022-09-23T14:31:36.105Z,11.70
2022-09-23T14:33:41.820Z,9.02
2022-09-23T14:35:51.579Z,10.90
2022-09-23T14:38:16.334Z,8.90
2022-09-23T14:40:20.681Z,10.18
2022-09-23T14:44:42.413Z,16.88
2022-09-23T14:46:56.975Z,9.30
2022-09-23T14:48:59.055Z,18.25
2022-09-23T14:51:04.025Z,12.20
2022-09-23T14:53:24.230Z,17.63
2022-09-23T14:55:29.051Z,11.80
2022-09-23T14:57:32.087Z,10.52
2022-09-23T14:59:36.705Z,10.27
2022-09-23T15:01:39.383Z,8.27
2022-09-23T15:03:50.096Z,15.18
2022-09-23T15:05:58.445Z,8.13
2022-09-23T15:08:12.118Z,10.18
2022-09-23T15:10:27.145Z,11.20
2022-09-23T15:12:30.498Z,11.98
2022-09-23T15:14:42.310Z,12.57
2022-09-23T15:16:49.582Z,9.88
2022-09-23T15:18:57.852Z,16.38
2022-09-23T15:21:31.676Z,12.00
2022-09-23T15:24:15.813Z,15.02
2022-09-23T15:26:48.323Z,8.35
2022-09-23T15:28:56.308Z,8.48
2022-09-23T15:30:58.622Z,10.68
2022-09-23T15:33:00.675Z,7.60
2022-09-23T15:35:02.917Z,14.15
2022-09-23T15:37:08.266Z,12.40
2022-09-23T15:39:12.381Z,10.77
2022-09-23T15:41:18.070Z,8.82
2022-09-23T15:43:32.723Z,14.38
2022-09-23T15:45:40.375Z,10.57
2022-09-23T15:47:43.201Z,9.60
2022-09-23T15:49:52.066Z,12.60
2022-09-23T15:52:15.491Z,16.33
2022-09-23T15:56:38.202Z,11.52
2022-09-23T15:58:58.673Z,10.75
2022-09-23T16:01:01.851Z,12.65
2022-09-23T16:03:06.767Z,96.78
2022-09-23T16:05:18.613Z,14.13
2022-09-23T16:07:21.282Z,15.77
2022-09-23T16:09:56.560Z,12.18
2022-09-23T16:12:09.481Z,9.97
2022-09-23T16:14:30.012Z,11.18
2022-09-23T16:16:32.963Z,17.05
2022-09-23T16:18:39.411Z,11.07
2022-09-23T16:20:56.566Z,9.00
2022-09-23T16:23:05.323Z,13.25
2022-09-23T16:25:31.509Z,11.07
2022-09-23T16:27:34.211Z,12.50
2022-09-23T16:29:37.011Z,19.77
2022-09-23T16:31:39.566Z,20.77
2022-09-23T16:33:43.283Z,10.30
2022-09-23T16:35:45.813Z,10.65
2022-09-23T16:39:50.413Z,12.05
2022-09-23T16:42:13.608Z,13.32
2022-09-23T16:44:19.505Z,12.18
2022-09-23T16:46:22.772Z,16.25
2022-09-23T16:48:30.957Z,11.00
2022-09-23T16:50:42.803Z,9.05
2022-09-23T16:52:56.916Z,7.95
2022-09-23T16:54:59.265Z,8.68
2022-09-23T16:57:02.069Z,7.63
2022-09-23T17:01:38.358Z,10.00
2022-09-23T17:03:41.046Z,13.98
2022-09-23T17:05:46.582Z,8.13
2022-09-23T17:07:49.125Z,11.18
2022-09-23T17:09:51.402Z,9.77
2022-09-23T17:14:01.089Z,10.40
2022-09-23T17:18:08.165Z,12.20
2022-09-23T17:20:10.319Z,12.02
2022-09-23T17:24:15.115Z,13.00
2022-09-23T17:26:19.219Z,9.70
2022-09-23T17:28:26.134Z,10.63
2022-09-23T17:30:29.983Z,12.10
2022-09-23T17:32:32.093Z,13.45
2022-09-23T17:36:37.039Z,8.25
2022-09-23T17:38:41.771Z,11.07
2022-09-23T17:40:55.251Z,7.28
2022-09-23T17:42:57.361Z,11.10
2022-09-23T17:44:59.663Z,12.35
2022-09-23T17:47:04.994Z,14.23
2022-09-23T17:49:08.565Z,9.85
2022-09-23T17:51:17.023Z,10.10
2022-09-23T17:53:20.431Z,10.50
2022-09-23T17:55:22.647Z,8.32
2022-09-23T17:59:27.003Z,11.70
2022-09-23T18:01:29.350Z,12.68
2022-09-23T18:05:35.747Z,11.30
2022-09-23T18:07:37.811Z,10.20
2022-09-23T18:09:50.337Z,16.33
2022-09-23T18:13:59.701Z,11.68
2022-09-23T18:16:03.023Z,9.85
2022-09-23T18:18:06.223Z,11.27
2022-09-23T18:20:14.565Z,10.98
2022-09-23T18:22:16.977Z,8.63
2022-09-23T18:26:38.620Z,11.85
2022-09-23T18:28:41.013Z,10.20
2022-09-23T18:30:55.095Z,9.30
2022-09-23T18:32:58.455Z,11.45
2022-09-23T18:35:00.646Z,10.70
2022-09-23T18:37:02.871Z,11.20
2022-09-23T18:39:05.846Z,9.02
2022-09-23T18:41:09.482Z,12.98
2022-09-23T18:43:11.723Z,12.60
2022-09-23T18:45:17.075Z,8.25
2022-09-23T18:47:39.093Z,9.20
2022-09-23T18:49:59.842Z,9.90
2022-09-23T18:52:02.359Z,10.05
2022-09-23T18:54:07.194Z,9.82
2022-09-23T18:56:12.133Z,12.68
2022-09-23T18:58:14.518Z,11.48
2022-09-23T19:00:16.857Z,8.18
2022-09-23T19:02:19.143Z,9.55
2022-09-23T19:04:23.498Z,10.07
2022-09-23T19:06:26.105Z,13.07
2022-09-23T19:08:28.676Z,10.52
2022-09-23T19:10:30.896Z,8.45
2022-09-23T19:12:33.131Z,8.90
2022-09-23T19:16:37.955Z,8.88
2022-09-23T19:18:42.082Z,7.68
2022-09-23T19:20:52.111Z,11.25
2022-09-23T19:22:54.722Z,12.98
2022-09-23T19:24:56.863Z,11.82
2022-09-23T19:26:59.123Z,13.00
2022-09-23T19:29:05.606Z,10.25
2022-09-23T19:31:12.625Z,11.23
2022-09-23T19:33:17.918Z,10.75
2022-09-23T19:35:20.144Z,9.82
2022-09-23T19:37:22.672Z,10.20
2022-09-23T19:39:31.350Z,14.57
2022-09-23T19:41:35.633Z,16.35
2022-09-23T19:43:41.018Z,21.15
2022-09-23T19:45:44.591Z,14.70
2022-09-23T19:48:09.862Z,14.43
2022-09-23T19:50:30.448Z,12.57
2022-09-23T19:52:32.517Z,18.85
2022-09-23T19:54:40.260Z,11.15
2022-09-23T19:56:42.410Z,15.50
2022-09-23T20:02:51.737Z,15.45
2022-09-23T20:04:56.916Z,19.33
2022-09-23T20:07:01.532Z,15.43
2022-09-23T20:09:04.062Z,14.77
2022-09-23T20:11:27.583Z,11.35
2022-09-23T20:13:31.542Z,23.63
2022-09-23T20:15:33.709Z,19.52
2022-09-23T20:17:36.112Z,14.10
2022-09-23T20:19:41.483Z,14.70
2022-09-23T20:22:12.614Z,17.30
2022-09-23T20:24:17.068Z,13.57
2022-09-23T20:26:37.539Z,14.07
2022-09-23T20:28:39.595Z,13.45
2022-09-23T20:30:43.977Z,14.95
2022-09-23T20:32:49.406Z,12.52
2022-09-23T20:34:57.250Z,16.88
2022-09-23T20:37:02.029Z,24.23
2022-09-23T20:41:31.518Z,14.20
2022-09-23T20:43:37.841Z,15.07
2022-09-23T20:45:40.072Z,17.30
2022-09-23T20:47:42.121Z,16.05
2022-09-23T20:49:50.138Z,14.88
2022-09-23T20:51:52.198Z,13.85
2022-09-23T20:53:54.369Z,16.52
2022-09-23T20:55:58.390Z,13.48
2022-09-23T20:58:04.001Z,12.02
2022-09-23T21:00:09.444Z,13.45
2022-09-23T21:02:11.805Z,15.43
2022-09-23T21:04:13.927Z,11.13
2022-09-23T21:06:19.089Z,14.68
2022-09-23T21:08:21.600Z,14.48
2022-09-23T21:10:24.441Z,14.82
2022-09-23T21:12:26.470Z,14.20
2022-09-23T21:14:28.641Z,12.88
2022-09-23T21:16:31.061Z,17.27
2022-09-23T21:18:33.174Z,20.67
2022-09-23T21:20:35.309Z,12.75
2022-09-23T21:22:37.487Z,12.25
2022-09-23T21:25:16.136Z,10.68
2022-09-23T21:27:04.138Z,12.57
2022-09-23T21:29:07.010Z,10.95
2022-09-23T21:31:22.879Z,14.02
2022-09-23T21:33:25.364Z,9.00
2022-09-23T21:35:27.447Z,12.63
2022-09-23T21:37:29.619Z,11.75
2022-09-23T21:40:26.267Z,11.95
2022-09-23T21:42:29.432Z,10.63
2022-09-23T21:44:33.630Z,13.88
2022-09-23T21:46:36.532Z,12.85
2022-09-23T21:48:41.483Z,14.35
2022-09-23T21:51:15.839Z,12.73
2022-09-23T21:53:18.576Z,10.95
2022-09-23T21:55:41.496Z,13.80
2022-09-23T21:57:44.328Z,10.77
2022-09-23T21:59:57.038Z,13.57
2022-09-23T22:04:08.531Z,13.43
2022-09-23T22:06:27.946Z,13.07
2022-09-23T22:08:34.923Z,19.38
2022-09-23T22:10:37.749Z,13.02
2022-09-23T22:12:39.928Z,15.55
2022-09-23T22:14:42.966Z,15.52
2022-09-23T22:16:45.523Z,15.13
2022-09-23T22:18:51.818Z,18.48
2022-09-23T22:20:56.406Z,14.63
2022-09-23T22:22:58.528Z,16.15
2022-09-23T22:25:00.719Z,17.33
2022-09-23T22:29:27.088Z,13.27
2022-09-23T22:31:47.857Z,15.57
2022-09-23T22:33:50.683Z,14.38
2022-09-23T22:36:01.465Z,15.90
2022-09-23T22:38:04.794Z,16.55
2022-09-23T22:40:10.698Z,18.00
2022-09-23T22:42:13.448Z,16.83
2022-09-23T22:44:21.600Z,16.52
2022-09-23T22:46:34.819Z,17.42
2022-09-23T22:49:08.406Z,16.67
2022-09-23T22:51:17.216Z,18.25
2022-09-23T22:53:19.356Z,15.32
2022-09-23T22:55:33.715Z,17.63
2022-09-23T22:57:36.785Z,16.38
2022-09-23T23:00:00.485Z,17.20
2022-09-23T23:04:50.555Z,13.57
2022-09-23T23:06:52.617Z,17.42
2022-09-23T23:08:58.756Z,16.30
2022-09-23T23:11:10.931Z,14.40
2022-09-23T23:13:16.533Z,14.43
2022-09-23T23:15:21.294Z,14.20
2022-09-23T23:19:26.107Z,14.87
2022-09-23T23:21:28.504Z,15.50
2022-09-23T23:25:32.562Z,12.38
2022-09-23T23:29:36.985Z,14.70
2022-09-23T23:31:39.437Z,14.23
2022-09-23T23:33:42.368Z,13.45
2022-09-23T23:35:50.774Z,13.23
2022-09-23T23:37:52.854Z,15.23
2022-09-23T23:39:55.051Z,15.00
2022-09-23T23:44:18.252Z,15.95
2022-09-23T23:46:21.463Z,13.63
2022-09-23T23:48:29.678Z,13.75
2022-09-23T23:53:01.707Z,11.55
2022-09-23T23:55:07.237Z,12.30
2022-09-23T23:57:24.787Z,11.68
2022-09-23T23:59:28.476Z,12.05
